La Reforma, Texas
Current Conditions -  °F | °C
As of 7:15 PM on Saturday 20 Dec 2014 (Local Time) from KEBG Reporting Station
Overcast Overcast  
Wind Chill: 56°   Ceiling: 8000
Heat Index: 56°   Visibility: 10mi
Dew Point: 51°   Wind: 5mph
Humidity: 82%   Direction: 20°NNE
Pressure: 30.14"   Gusts: NA
Location:  26.6829°N, 98.4118°W
Report Text: KEBG 210115Z AUTO 02004KT 10SM SCT038 OVC080 14/11 A3014 RMK AO2 T01360106
Loading
Personal Weather Stations






























Interactive Weather Map New forecast layout! Learn more

10-Day Weather Forecast

Advertisements
Track Severe Weather on mobile